sensor_id;sensor_type;location;lat;lon;timestamp;P1;durP1;ratioP1;P2;durP2;ratioP2
23236;SDS011;11787;52.018;8.570;2024-03-02T00:01:06;5.50;;;2.63;;
23236;SDS011;11787;52.018;8.570;2024-03-02T00:03:32;5.32;;;2.75;;
23236;SDS011;11787;52.018;8.570;2024-03-02T00:05:58;5.07;;;2.40;;
23236;SDS011;11787;52.018;8.570;2024-03-02T00:08:24;5.40;;;2.92;;
23236;SDS011;11787;52.018;8.570;2024-03-02T00:10:51;5.53;;;2.90;;
23236;SDS011;11787;52.018;8.570;2024-03-02T00:13:16;5.82;;;3.03;;
23236;SDS011;11787;52.018;8.570;2024-03-02T00:15:48;5.25;;;2.83;;
23236;SDS011;11787;52.018;8.570;2024-03-02T00:18:19;5.72;;;2.55;;
23236;SDS011;11787;52.018;8.570;2024-03-02T00:20:45;5.72;;;3.13;;
23236;SDS011;11787;52.018;8.570;2024-03-02T00:23:13;5.05;;;3.03;;
23236;SDS011;11787;52.018;8.570;2024-03-02T00:25:41;5.05;;;2.80;;
23236;SDS011;11787;52.018;8.570;2024-03-02T00:28:16;4.30;;;3.15;;
23236;SDS011;11787;52.018;8.570;2024-03-02T00:33:21;4.45;;;2.42;;
23236;SDS011;11787;52.018;8.570;2024-03-02T00:35:47;4.68;;;2.80;;
23236;SDS011;11787;52.018;8.570;2024-03-02T00:38:14;8.70;;;3.40;;
23236;SDS011;11787;52.018;8.570;2024-03-02T00:40:43;4.97;;;2.45;;
23236;SDS011;11787;52.018;8.570;2024-03-02T00:43:43;5.90;;;2.67;;
23236;SDS011;11787;52.018;8.570;2024-03-02T00:46:17;4.90;;;2.67;;
23236;SDS011;11787;52.018;8.570;2024-03-02T00:48:56;5.53;;;3.13;;
23236;SDS011;11787;52.018;8.570;2024-03-02T00:51:25;5.40;;;3.38;;
23236;SDS011;11787;52.018;8.570;2024-03-02T00:53:52;4.82;;;2.55;;
23236;SDS011;11787;52.018;8.570;2024-03-02T00:56:21;4.78;;;2.45;;
23236;SDS011;11787;52.018;8.570;2024-03-02T00:58:47;5.53;;;2.60;;
23236;SDS011;11787;52.018;8.570;2024-03-02T01:01:13;6.18;;;2.92;;
23236;SDS011;11787;52.018;8.570;2024-03-02T01:03:38;7.68;;;3.47;;
23236;SDS011;11787;52.018;8.570;2024-03-02T01:06:04;6.47;;;3.10;;
23236;SDS011;11787;52.018;8.570;2024-03-02T01:08:32;5.13;;;2.80;;
23236;SDS011;11787;52.018;8.570;2024-03-02T01:10:58;4.85;;;2.45;;
23236;SDS011;11787;52.018;8.570;2024-03-02T01:13:24;5.38;;;2.70;;
23236;SDS011;11787;52.018;8.570;2024-03-02T01:15:50;8.02;;;3.22;;
23236;SDS011;11787;52.018;8.570;2024-03-02T01:18:15;3.50;;;2.40;;
23236;SDS011;11787;52.018;8.570;2024-03-02T01:20:41;6.15;;;2.72;;
23236;SDS011;11787;52.018;8.570;2024-03-02T01:23:06;4.55;;;2.55;;
23236;SDS011;11787;52.018;8.570;2024-03-02T01:25:32;4.93;;;2.58;;
23236;SDS011;11787;52.018;8.570;2024-03-02T01:27:58;4.70;;;2.35;;
23236;SDS011;11787;52.018;8.570;2024-03-02T01:30:23;5.50;;;2.53;;
23236;SDS011;11787;52.018;8.570;2024-03-02T01:32:49;4.93;;;2.50;;
23236;SDS011;11787;52.018;8.570;2024-03-02T01:35:14;4.70;;;2.67;;
23236;SDS011;11787;52.018;8.570;2024-03-02T01:37:40;2.85;;;1.75;;
23236;SDS011;11787;52.018;8.570;2024-03-02T01:40:06;4.88;;;3.10;;
23236;SDS011;11787;52.018;8.570;2024-03-02T01:42:34;4.50;;;2.53;;
23236;SDS011;11787;52.018;8.570;2024-03-02T01:45:04;4.18;;;2.50;;
23236;SDS011;11787;52.018;8.570;2024-03-02T01:47:30;4.07;;;2.38;;
23236;SDS011;11787;52.018;8.570;2024-03-02T01:49:57;7.60;;;2.80;;
23236;SDS011;11787;52.018;8.570;2024-03-02T01:52:23;3.92;;;2.30;;
23236;SDS011;11787;52.018;8.570;2024-03-02T01:54:49;5.07;;;2.58;;
23236;SDS011;11787;52.018;8.570;2024-03-02T01:57:14;4.57;;;2.50;;
23236;SDS011;11787;52.018;8.570;2024-03-02T01:59:40;4.93;;;2.60;;
23236;SDS011;11787;52.018;8.570;2024-03-02T02:02:06;4.22;;;2.33;;
23236;SDS011;11787;52.018;8.570;2024-03-02T02:04:32;5.68;;;2.63;;
23236;SDS011;11787;52.018;8.570;2024-03-02T02:06:58;4.18;;;2.60;;
23236;SDS011;11787;52.018;8.570;2024-03-02T02:09:24;5.15;;;2.50;;
23236;SDS011;11787;52.018;8.570;2024-03-02T02:11:50;3.47;;;2.15;;
23236;SDS011;11787;52.018;8.570;2024-03-02T02:14:16;4.05;;;2.60;;
23236;SDS011;11787;52.018;8.570;2024-03-02T02:16:42;4.55;;;2.40;;
23236;SDS011;11787;52.018;8.570;2024-03-02T02:19:08;4.13;;;2.25;;
23236;SDS011;11787;52.018;8.570;2024-03-02T02:21:34;5.53;;;2.40;;
23236;SDS011;11787;52.018;8.570;2024-03-02T02:24:00;4.88;;;2.72;;
23236;SDS011;11787;52.018;8.570;2024-03-02T02:26:28;4.43;;;2.40;;
23236;SDS011;11787;52.018;8.570;2024-03-02T02:28:54;4.35;;;2.25;;
23236;SDS011;11787;52.018;8.570;2024-03-02T02:31:19;5.10;;;2.47;;
23236;SDS011;11787;52.018;8.570;2024-03-02T02:33:45;3.80;;;2.40;;
23236;SDS011;11787;52.018;8.570;2024-03-02T02:36:11;5.47;;;2.50;;
23236;SDS011;11787;52.018;8.570;2024-03-02T02:38:38;5.07;;;2.78;;
23236;SDS011;11787;52.018;8.570;2024-03-02T02:41:08;4.53;;;2.58;;
23236;SDS011;11787;52.018;8.570;2024-03-02T02:43:33;4.00;;;2.50;;
23236;SDS011;11787;52.018;8.570;2024-03-02T02:45:59;3.63;;;2.15;;
23236;SDS011;11787;52.018;8.570;2024-03-02T02:48:25;3.95;;;2.53;;
23236;SDS011;11787;52.018;8.570;2024-03-02T02:50:50;6.32;;;2.63;;
23236;SDS011;11787;52.018;8.570;2024-03-02T02:53:16;4.80;;;2.88;;
23236;SDS011;11787;52.018;8.570;2024-03-02T02:55:41;4.30;;;2.25;;
23236;SDS011;11787;52.018;8.570;2024-03-02T02:58:08;5.10;;;3.00;;
23236;SDS011;11787;52.018;8.570;2024-03-02T03:00:34;4.63;;;2.83;;
23236;SDS011;11787;52.018;8.570;2024-03-02T03:03:01;4.03;;;2.70;;
23236;SDS011;11787;52.018;8.570;2024-03-02T03:05:27;4.22;;;2.42;;
23236;SDS011;11787;52.018;8.570;2024-03-02T03:07:53;5.10;;;2.75;;
23236;SDS011;11787;52.018;8.570;2024-03-02T03:10:19;4.78;;;2.95;;
23236;SDS011;11787;52.018;8.570;2024-03-02T03:12:47;4.90;;;2.33;;
23236;SDS011;11787;52.018;8.570;2024-03-02T03:15:13;5.38;;;3.10;;
23236;SDS011;11787;52.018;8.570;2024-03-02T03:17:39;5.20;;;2.40;;
23236;SDS011;11787;52.018;8.570;2024-03-02T03:20:05;4.85;;;3.10;;
23236;SDS011;11787;52.018;8.570;2024-03-02T03:22:34;5.55;;;3.00;;
23236;SDS011;11787;52.018;8.570;2024-03-02T03:25:00;5.53;;;3.08;;
23236;SDS011;11787;52.018;8.570;2024-03-02T03:27:26;3.95;;;2.22;;
23236;SDS011;11787;52.018;8.570;2024-03-02T03:29:52;5.55;;;2.95;;
23236;SDS011;11787;52.018;8.570;2024-03-02T03:32:19;5.50;;;3.05;;
23236;SDS011;11787;52.018;8.570;2024-03-02T03:34:44;5.07;;;2.63;;
23236;SDS011;11787;52.018;8.570;2024-03-02T03:37:10;6.43;;;2.90;;
23236;SDS011;11787;52.018;8.570;2024-03-02T03:39:36;6.88;;;2.95;;
23236;SDS011;11787;52.018;8.570;2024-03-02T03:42:02;6.35;;;3.38;;
23236;SDS011;11787;52.018;8.570;2024-03-02T03:44:28;6.80;;;3.28;;
23236;SDS011;11787;52.018;8.570;2024-03-02T03:46:53;6.53;;;3.22;;
23236;SDS011;11787;52.018;8.570;2024-03-02T03:49:19;5.43;;;3.05;;
23236;SDS011;11787;52.018;8.570;2024-03-02T03:51:44;6.03;;;3.38;;
23236;SDS011;11787;52.018;8.570;2024-03-02T03:54:10;5.53;;;2.85;;
23236;SDS011;11787;52.018;8.570;2024-03-02T03:56:36;10.25;;;3.60;;
23236;SDS011;11787;52.018;8.570;2024-03-02T03:59:02;7.20;;;3.60;;
23236;SDS011;11787;52.018;8.570;2024-03-02T04:01:27;6.03;;;3.10;;
23236;SDS011;11787;52.018;8.570;2024-03-02T04:03:53;7.60;;;3.50;;
23236;SDS011;11787;52.018;8.570;2024-03-02T04:06:18;6.93;;;3.10;;
23236;SDS011;11787;52.018;8.570;2024-03-02T04:08:44;6.93;;;3.25;;
23236;SDS011;11787;52.018;8.570;2024-03-02T04:11:10;7.00;;;3.33;;
23236;SDS011;11787;52.018;8.570;2024-03-02T04:13:35;5.78;;;3.15;;
23236;SDS011;11787;52.018;8.570;2024-03-02T04:16:01;7.75;;;3.60;;
23236;SDS011;11787;52.018;8.570;2024-03-02T04:18:28;8.82;;;4.13;;
23236;SDS011;11787;52.018;8.570;2024-03-02T04:20:54;7.93;;;4.43;;
23236;SDS011;11787;52.018;8.570;2024-03-02T04:23:19;6.75;;;3.70;;
23236;SDS011;11787;52.018;8.570;2024-03-02T04:25:45;9.73;;;4.07;;
23236;SDS011;11787;52.018;8.570;2024-03-02T04:28:10;10.13;;;4.53;;
23236;SDS011;11787;52.018;8.570;2024-03-02T04:30:37;7.85;;;3.92;;
23236;SDS011;11787;52.018;8.570;2024-03-02T04:33:03;8.80;;;4.63;;
23236;SDS011;11787;52.018;8.570;2024-03-02T04:35:30;8.77;;;3.78;;
23236;SDS011;11787;52.018;8.570;2024-03-02T04:37:56;9.20;;;3.72;;
23236;SDS011;11787;52.018;8.570;2024-03-02T04:40:21;8.70;;;3.88;;
23236;SDS011;11787;52.018;8.570;2024-03-02T04:42:47;7.10;;;3.53;;
23236;SDS011;11787;52.018;8.570;2024-03-02T04:45:12;7.57;;;3.45;;
23236;SDS011;11787;52.018;8.570;2024-03-02T04:47:38;6.40;;;3.78;;
23236;SDS011;11787;52.018;8.570;2024-03-02T04:50:04;7.88;;;3.53;;
23236;SDS011;11787;52.018;8.570;2024-03-02T04:52:30;6.60;;;3.92;;
23236;SDS011;11787;52.018;8.570;2024-03-02T04:54:56;7.40;;;3.35;;
23236;SDS011;11787;52.018;8.570;2024-03-02T05:00:06;7.07;;;3.38;;
23236;SDS011;11787;52.018;8.570;2024-03-02T05:02:33;8.45;;;3.88;;
23236;SDS011;11787;52.018;8.570;2024-03-02T05:04:59;6.05;;;3.35;;
23236;SDS011;11787;52.018;8.570;2024-03-02T05:07:25;6.95;;;3.80;;
23236;SDS011;11787;52.018;8.570;2024-03-02T05:09:50;9.32;;;3.80;;
23236;SDS011;11787;52.018;8.570;2024-03-02T05:12:16;7.13;;;3.88;;
23236;SDS011;11787;52.018;8.570;2024-03-02T05:15:00;9.00;;;3.83;;
23236;SDS011;11787;52.018;8.570;2024-03-02T05:17:27;6.68;;;3.63;;
23236;SDS011;11787;52.018;8.570;2024-03-02T05:19:52;7.35;;;4.28;;
23236;SDS011;11787;52.018;8.570;2024-03-02T05:22:18;7.75;;;4.40;;
23236;SDS011;11787;52.018;8.570;2024-03-02T05:24:43;7.95;;;4.00;;
23236;SDS011;11787;52.018;8.570;2024-03-02T05:27:09;6.60;;;3.58;;
23236;SDS011;11787;52.018;8.570;2024-03-02T05:29:34;7.80;;;3.80;;
23236;SDS011;11787;52.018;8.570;2024-03-02T05:32:00;10.18;;;4.65;;
23236;SDS011;11787;52.018;8.570;2024-03-02T05:34:25;9.60;;;4.30;;
23236;SDS011;11787;52.018;8.570;2024-03-02T05:36:51;8.30;;;4.25;;
23236;SDS011;11787;52.018;8.570;2024-03-02T05:39:16;7.40;;;3.38;;
23236;SDS011;11787;52.018;8.570;2024-03-02T05:41:42;9.00;;;4.82;;
23236;SDS011;11787;52.018;8.570;2024-03-02T05:44:07;7.50;;;4.00;;
23236;SDS011;11787;52.018;8.570;2024-03-02T05:46:33;7.57;;;4.07;;
23236;SDS011;11787;52.018;8.570;2024-03-02T05:49:01;7.47;;;4.50;;
23236;SDS011;11787;52.018;8.570;2024-03-02T05:51:27;6.43;;;4.03;;
23236;SDS011;11787;52.018;8.570;2024-03-02T05:53:53;9.55;;;4.70;;
23236;SDS011;11787;52.018;8.570;2024-03-02T05:56:18;10.15;;;4.25;;
23236;SDS011;11787;52.018;8.570;2024-03-02T05:58:44;8.15;;;4.00;;
23236;SDS011;11787;52.018;8.570;2024-03-02T06:19:07;7.25;;;4.57;;
23236;SDS011;11787;52.018;8.570;2024-03-02T06:21:32;9.10;;;4.57;;
23236;SDS011;11787;52.018;8.570;2024-03-02T06:23:58;9.70;;;3.97;;
23236;SDS011;11787;52.018;8.570;2024-03-02T06:26:24;7.75;;;4.53;;
23236;SDS011;11787;52.018;8.570;2024-03-02T06:28:49;7.97;;;4.60;;
23236;SDS011;11787;52.018;8.570;2024-03-02T06:31:15;8.02;;;4.35;;
23236;SDS011;11787;52.018;8.570;2024-03-02T06:33:41;9.40;;;5.07;;
23236;SDS011;11787;52.018;8.570;2024-03-02T06:36:06;7.30;;;4.10;;
23236;SDS011;11787;52.018;8.570;2024-03-02T06:38:36;8.32;;;3.95;;
23236;SDS011;11787;52.018;8.570;2024-03-02T06:41:02;9.20;;;4.50;;
23236;SDS011;11787;52.018;8.570;2024-03-02T06:43:28;7.30;;;3.38;;
23236;SDS011;11787;52.018;8.570;2024-03-02T06:45:53;7.55;;;4.15;;
23236;SDS011;11787;52.018;8.570;2024-03-02T06:48:19;7.32;;;3.85;;
23236;SDS011;11787;52.018;8.570;2024-03-02T06:50:47;9.70;;;4.20;;
23236;SDS011;11787;52.018;8.570;2024-03-02T06:53:13;8.52;;;4.28;;
23236;SDS011;11787;52.018;8.570;2024-03-02T06:55:42;7.00;;;3.60;;
23236;SDS011;11787;52.018;8.570;2024-03-02T06:58:14;9.25;;;4.20;;
23236;SDS011;11787;52.018;8.570;2024-03-02T07:00:41;8.13;;;4.28;;
23236;SDS011;11787;52.018;8.570;2024-03-02T07:03:07;8.90;;;4.05;;
23236;SDS011;11787;52.018;8.570;2024-03-02T07:05:33;8.73;;;4.18;;
23236;SDS011;11787;52.018;8.570;2024-03-02T07:07:58;9.25;;;4.30;;
23236;SDS011;11787;52.018;8.570;2024-03-02T07:10:24;8.30;;;4.22;;
23236;SDS011;11787;52.018;8.570;2024-03-02T07:12:50;8.57;;;4.45;;
23236;SDS011;11787;52.018;8.570;2024-03-02T07:15:15;9.05;;;4.72;;
23236;SDS011;11787;52.018;8.570;2024-03-02T07:17:54;6.70;;;3.58;;
23236;SDS011;11787;52.018;8.570;2024-03-02T07:20:20;12.52;;;5.35;;
23236;SDS011;11787;52.018;8.570;2024-03-02T07:22:45;9.82;;;4.57;;
23236;SDS011;11787;52.018;8.570;2024-03-02T07:25:11;7.40;;;4.60;;
23236;SDS011;11787;52.018;8.570;2024-03-02T07:27:38;9.02;;;4.30;;
23236;SDS011;11787;52.018;8.570;2024-03-02T07:30:04;9.57;;;4.63;;
23236;SDS011;11787;52.018;8.570;2024-03-02T07:32:30;9.95;;;4.78;;
23236;SDS011;11787;52.018;8.570;2024-03-02T07:34:55;9.80;;;4.80;;
23236;SDS011;11787;52.018;8.570;2024-03-02T07:37:21;9.20;;;4.70;;
23236;SDS011;11787;52.018;8.570;2024-03-02T07:39:50;10.18;;;4.20;;
23236;SDS011;11787;52.018;8.570;2024-03-02T07:42:16;9.77;;;3.92;;
23236;SDS011;11787;52.018;8.570;2024-03-02T07:44:44;7.40;;;3.88;;
23236;SDS011;11787;52.018;8.570;2024-03-02T07:47:10;8.98;;;4.28;;
23236;SDS011;11787;52.018;8.570;2024-03-02T07:49:36;10.52;;;4.32;;
23236;SDS011;11787;52.018;8.570;2024-03-02T07:52:01;12.85;;;4.95;;
23236;SDS011;11787;52.018;8.570;2024-03-02T07:54:27;8.23;;;4.28;;
23236;SDS011;11787;52.018;8.570;2024-03-02T07:56:53;9.23;;;4.20;;
23236;SDS011;11787;52.018;8.570;2024-03-02T07:59:18;9.07;;;4.75;;
23236;SDS011;11787;52.018;8.570;2024-03-02T08:01:44;8.40;;;4.68;;
23236;SDS011;11787;52.018;8.570;2024-03-02T08:04:09;8.25;;;4.38;;
23236;SDS011;11787;52.018;8.570;2024-03-02T08:06:35;8.40;;;4.55;;
23236;SDS011;11787;52.018;8.570;2024-03-02T08:09:01;7.97;;;4.25;;
23236;SDS011;11787;52.018;8.570;2024-03-02T08:11:26;9.52;;;4.88;;
23236;SDS011;11787;52.018;8.570;2024-03-02T08:13:52;11.20;;;4.80;;
23236;SDS011;11787;52.018;8.570;2024-03-02T08:16:20;8.88;;;4.03;;
23236;SDS011;11787;52.018;8.570;2024-03-02T08:18:47;9.57;;;4.43;;
23236;SDS011;11787;52.018;8.570;2024-03-02T08:21:13;7.57;;;4.22;;
23236;SDS011;11787;52.018;8.570;2024-03-02T08:23:40;7.05;;;3.92;;
23236;SDS011;11787;52.018;8.570;2024-03-02T08:26:07;7.70;;;3.90;;
23236;SDS011;11787;52.018;8.570;2024-03-02T08:28:33;8.60;;;4.00;;
23236;SDS011;11787;52.018;8.570;2024-03-02T08:30:59;6.93;;;3.63;;
23236;SDS011;11787;52.018;8.570;2024-03-02T08:33:25;6.32;;;3.67;;
23236;SDS011;11787;52.018;8.570;2024-03-02T08:35:50;6.20;;;3.08;;
23236;SDS011;11787;52.018;8.570;2024-03-02T08:38:16;7.55;;;3.67;;
23236;SDS011;11787;52.018;8.570;2024-03-02T08:40:42;8.15;;;3.38;;
23236;SDS011;11787;52.018;8.570;2024-03-02T08:43:07;5.85;;;3.20;;
23236;SDS011;11787;52.018;8.570;2024-03-02T08:45:33;7.45;;;3.75;;
23236;SDS011;11787;52.018;8.570;2024-03-02T08:47:59;6.60;;;3.38;;
23236;SDS011;11787;52.018;8.570;2024-03-02T08:50:25;9.13;;;3.30;;
23236;SDS011;11787;52.018;8.570;2024-03-02T08:52:51;8.77;;;3.65;;
23236;SDS011;11787;52.018;8.570;2024-03-02T08:55:16;5.93;;;2.92;;
23236;SDS011;11787;52.018;8.570;2024-03-02T08:57:42;4.00;;;2.70;;
23236;SDS011;11787;52.018;8.570;2024-03-02T09:00:08;8.30;;;2.90;;
23236;SDS011;11787;52.018;8.570;2024-03-02T09:02:34;5.40;;;3.40;;
23236;SDS011;11787;52.018;8.570;2024-03-02T09:05:00;5.82;;;2.67;;
23236;SDS011;11787;52.018;8.570;2024-03-02T09:07:26;7.00;;;3.15;;
23236;SDS011;11787;52.018;8.570;2024-03-02T09:09:52;5.20;;;3.03;;
23236;SDS011;11787;52.018;8.570;2024-03-02T09:12:17;6.05;;;2.92;;
23236;SDS011;11787;52.018;8.570;2024-03-02T09:14:43;7.07;;;2.42;;
23236;SDS011;11787;52.018;8.570;2024-03-02T09:17:09;7.05;;;2.85;;
23236;SDS011;11787;52.018;8.570;2024-03-02T09:19:36;5.28;;;2.60;;
23236;SDS011;11787;52.018;8.570;2024-03-02T09:22:03;5.78;;;2.33;;
23236;SDS011;11787;52.018;8.570;2024-03-02T09:24:30;4.57;;;2.72;;
23236;SDS011;11787;52.018;8.570;2024-03-02T09:26:56;5.10;;;2.67;;
23236;SDS011;11787;52.018;8.570;2024-03-02T09:29:22;5.43;;;2.25;;
23236;SDS011;11787;52.018;8.570;2024-03-02T09:31:47;4.07;;;2.38;;
23236;SDS011;11787;52.018;8.570;2024-03-02T09:34:14;3.42;;;1.95;;
23236;SDS011;11787;52.018;8.570;2024-03-02T09:36:40;3.22;;;1.90;;
23236;SDS011;11787;52.018;8.570;2024-03-02T09:39:09;2.75;;;1.70;;
23236;SDS011;11787;52.018;8.570;2024-03-02T09:41:36;3.53;;;2.13;;
23236;SDS011;11787;52.018;8.570;2024-03-02T09:44:02;3.65;;;1.75;;
23236;SDS011;11787;52.018;8.570;2024-03-02T09:46:29;3.17;;;1.90;;
23236;SDS011;11787;52.018;8.570;2024-03-02T09:48:54;3.97;;;2.13;;
23236;SDS011;11787;52.018;8.570;2024-03-02T09:51:20;4.32;;;2.03;;
23236;SDS011;11787;52.018;8.570;2024-03-02T09:53:46;4.72;;;2.22;;
23236;SDS011;11787;52.018;8.570;2024-03-02T09:56:12;4.10;;;2.20;;
23236;SDS011;11787;52.018;8.570;2024-03-02T09:58:38;3.70;;;1.83;;
23236;SDS011;11787;52.018;8.570;2024-03-02T10:01:07;4.05;;;2.28;;
23236;SDS011;11787;52.018;8.570;2024-03-02T10:03:33;3.97;;;2.30;;
23236;SDS011;11787;52.018;8.570;2024-03-02T10:08:47;5.30;;;2.58;;
23236;SDS011;11787;52.018;8.570;2024-03-02T10:11:26;5.93;;;2.63;;
23236;SDS011;11787;52.018;8.570;2024-03-02T10:16:38;5.57;;;2.65;;
23236;SDS011;11787;52.018;8.570;2024-03-02T10:19:18;3.78;;;2.17;;
23236;SDS011;11787;52.018;8.570;2024-03-02T10:21:48;5.35;;;2.40;;
23236;SDS011;11787;52.018;8.570;2024-03-02T10:24:15;6.05;;;2.92;;
23236;SDS011;11787;52.018;8.570;2024-03-02T10:26:41;5.78;;;2.70;;
23236;SDS011;11787;52.018;8.570;2024-03-02T10:29:10;6.82;;;2.50;;
23236;SDS011;11787;52.018;8.570;2024-03-02T10:31:40;4.35;;;2.45;;
23236;SDS011;11787;52.018;8.570;2024-03-02T10:34:09;5.82;;;2.90;;
23236;SDS011;11787;52.018;8.570;2024-03-02T10:36:36;3.47;;;2.30;;
23236;SDS011;11787;52.018;8.570;2024-03-02T10:39:06;4.55;;;2.60;;
23236;SDS011;11787;52.018;8.570;2024-03-02T10:41:32;6.20;;;2.55;;
23236;SDS011;11787;52.018;8.570;2024-03-02T10:43:59;5.00;;;2.70;;
23236;SDS011;11787;52.018;8.570;2024-03-02T10:46:31;5.05;;;2.60;;
23236;SDS011;11787;52.018;8.570;2024-03-02T10:48:59;7.38;;;2.75;;
23236;SDS011;11787;52.018;8.570;2024-03-02T10:51:29;4.95;;;2.58;;
23236;SDS011;11787;52.018;8.570;2024-03-02T10:53:59;5.25;;;2.40;;
23236;SDS011;11787;52.018;8.570;2024-03-02T10:56:29;3.33;;;1.70;;
23236;SDS011;11787;52.018;8.570;2024-03-02T11:01:50;3.65;;;2.08;;
23236;SDS011;11787;52.018;8.570;2024-03-02T11:04:16;3.08;;;1.92;;
23236;SDS011;11787;52.018;8.570;2024-03-02T11:06:45;3.30;;;1.95;;
23236;SDS011;11787;52.018;8.570;2024-03-02T11:09:14;5.47;;;2.50;;
23236;SDS011;11787;52.018;8.570;2024-03-02T11:11:42;4.10;;;2.15;;
23236;SDS011;11787;52.018;8.570;2024-03-02T11:14:13;4.38;;;2.10;;
23236;SDS011;11787;52.018;8.570;2024-03-02T11:16:41;8.20;;;1.90;;
23236;SDS011;11787;52.018;8.570;2024-03-02T11:19:08;2.60;;;1.75;;
23236;SDS011;11787;52.018;8.570;2024-03-02T11:21:38;3.47;;;2.13;;
23236;SDS011;11787;52.018;8.570;2024-03-02T11:27:03;4.63;;;2.05;;
23236;SDS011;11787;52.018;8.570;2024-03-02T11:32:05;3.67;;;1.98;;
23236;SDS011;11787;52.018;8.570;2024-03-02T11:34:34;2.97;;;1.73;;
23236;SDS011;11787;52.018;8.570;2024-03-02T11:37:01;5.80;;;2.10;;
23236;SDS011;11787;52.018;8.570;2024-03-02T11:39:29;5.70;;;2.28;;
23236;SDS011;11787;52.018;8.570;2024-03-02T11:41:58;8.55;;;2.28;;
23236;SDS011;11787;52.018;8.570;2024-03-02T11:44:25;5.40;;;2.33;;
23236;SDS011;11787;52.018;8.570;2024-03-02T11:47:05;3.85;;;2.33;;
23236;SDS011;11787;52.018;8.570;2024-03-02T11:49:39;4.47;;;2.15;;
23236;SDS011;11787;52.018;8.570;2024-03-02T11:52:11;3.78;;;1.85;;
23236;SDS011;11787;52.018;8.570;2024-03-02T11:54:43;4.47;;;1.98;;
23236;SDS011;11787;52.018;8.570;2024-03-02T11:57:14;6.68;;;3.05;;
23236;SDS011;11787;52.018;8.570;2024-03-02T11:59:41;3.58;;;2.13;;
23236;SDS011;11787;52.018;8.570;2024-03-02T12:02:07;3.47;;;1.92;;
23236;SDS011;11787;52.018;8.570;2024-03-02T12:04:40;3.22;;;1.75;;
23236;SDS011;11787;52.018;8.570;2024-03-02T12:07:06;3.88;;;1.63;;
23236;SDS011;11787;52.018;8.570;2024-03-02T12:09:33;4.68;;;2.38;;
23236;SDS011;11787;52.018;8.570;2024-03-02T12:12:03;3.35;;;1.90;;
23236;SDS011;11787;52.018;8.570;2024-03-02T12:14:33;3.45;;;2.17;;
23236;SDS011;11787;52.018;8.570;2024-03-02T12:17:00;3.90;;;2.08;;
23236;SDS011;11787;52.018;8.570;2024-03-02T12:19:26;4.13;;;1.90;;
23236;SDS011;11787;52.018;8.570;2024-03-02T12:21:54;2.70;;;1.85;;
23236;SDS011;11787;52.018;8.570;2024-03-02T12:24:26;3.03;;;1.70;;
23236;SDS011;11787;52.018;8.570;2024-03-02T12:26:52;3.38;;;1.80;;
23236;SDS011;11787;52.018;8.570;2024-03-02T12:29:19;3.17;;;2.00;;
23236;SDS011;11787;52.018;8.570;2024-03-02T12:31:47;2.65;;;1.60;;
23236;SDS011;11787;52.018;8.570;2024-03-02T12:34:14;3.20;;;1.80;;
23236;SDS011;11787;52.018;8.570;2024-03-02T12:36:41;3.35;;;1.88;;
23236;SDS011;11787;52.018;8.570;2024-03-02T12:39:09;2.72;;;1.83;;
23236;SDS011;11787;52.018;8.570;2024-03-02T12:41:38;3.60;;;1.90;;
23236;SDS011;11787;52.018;8.570;2024-03-02T12:44:04;6.47;;;2.20;;
23236;SDS011;11787;52.018;8.570;2024-03-02T12:46:34;3.40;;;1.50;;
23236;SDS011;11787;52.018;8.570;2024-03-02T12:49:09;3.70;;;2.03;;
23236;SDS011;11787;52.018;8.570;2024-03-02T12:51:41;3.25;;;2.20;;
23236;SDS011;11787;52.018;8.570;2024-03-02T12:54:08;3.35;;;2.28;;
23236;SDS011;11787;52.018;8.570;2024-03-02T12:56:35;3.10;;;1.88;;
23236;SDS011;11787;52.018;8.570;2024-03-02T12:59:02;3.25;;;1.80;;
23236;SDS011;11787;52.018;8.570;2024-03-02T13:01:28;2.38;;;1.52;;
23236;SDS011;11787;52.018;8.570;2024-03-02T13:03:54;3.30;;;2.05;;
23236;SDS011;11787;52.018;8.570;2024-03-02T13:06:20;3.83;;;2.28;;
23236;SDS011;11787;52.018;8.570;2024-03-02T13:08:46;4.35;;;2.17;;
23236;SDS011;11787;52.018;8.570;2024-03-02T13:11:12;5.13;;;2.38;;
23236;SDS011;11787;52.018;8.570;2024-03-02T13:13:39;3.33;;;1.73;;
23236;SDS011;11787;52.018;8.570;2024-03-02T13:16:11;2.60;;;1.83;;
23236;SDS011;11787;52.018;8.570;2024-03-02T13:18:40;2.75;;;1.65;;
23236;SDS011;11787;52.018;8.570;2024-03-02T13:21:07;1.58;;;1.05;;
23236;SDS011;11787;52.018;8.570;2024-03-02T13:23:33;2.08;;;1.30;;
23236;SDS011;11787;52.018;8.570;2024-03-02T13:25:59;2.70;;;1.77;;
23236;SDS011;11787;52.018;8.570;2024-03-02T13:28:25;2.28;;;1.20;;
23236;SDS011;11787;52.018;8.570;2024-03-02T13:30:50;2.08;;;1.38;;
23236;SDS011;11787;52.018;8.570;2024-03-02T13:33:16;2.17;;;1.40;;
23236;SDS011;11787;52.018;8.570;2024-03-02T13:35:47;5.75;;;1.70;;
23236;SDS011;11787;52.018;8.570;2024-03-02T13:38:19;1.90;;;1.35;;
23236;SDS011;11787;52.018;8.570;2024-03-02T13:40:45;3.88;;;1.40;;
23236;SDS011;11787;52.018;8.570;2024-03-02T13:43:13;2.15;;;1.38;;
23236;SDS011;11787;52.018;8.570;2024-03-02T13:45:39;2.65;;;1.30;;
23236;SDS011;11787;52.018;8.570;2024-03-02T13:48:04;3.45;;;1.40;;
23236;SDS011;11787;52.018;8.570;2024-03-02T13:50:30;1.92;;;1.15;;
23236;SDS011;11787;52.018;8.570;2024-03-02T13:52:56;2.05;;;1.08;;
23236;SDS011;11787;52.018;8.570;2024-03-02T13:55:22;1.38;;;0.98;;
23236;SDS011;11787;52.018;8.570;2024-03-02T13:57:48;2.13;;;1.10;;
23236;SDS011;11787;52.018;8.570;2024-03-02T14:00:15;2.50;;;1.17;;
23236;SDS011;11787;52.018;8.570;2024-03-02T14:02:42;1.52;;;1.13;;
23236;SDS011;11787;52.018;8.570;2024-03-02T14:05:08;2.80;;;1.05;;
23236;SDS011;11787;52.018;8.570;2024-03-02T14:07:40;1.33;;;1.00;;
23236;SDS011;11787;52.018;8.570;2024-03-02T14:10:06;1.58;;;0.93;;
23236;SDS011;11787;52.018;8.570;2024-03-02T14:12:32;1.75;;;1.00;;
23236;SDS011;11787;52.018;8.570;2024-03-02T14:14:57;2.33;;;1.50;;
23236;SDS011;11787;52.018;8.570;2024-03-02T14:17:26;2.10;;;0.95;;
23236;SDS011;11787;52.018;8.570;2024-03-02T14:19:51;1.38;;;1.02;;
23236;SDS011;11787;52.018;8.570;2024-03-02T14:22:18;2.10;;;1.05;;
23236;SDS011;11787;52.018;8.570;2024-03-02T14:24:44;2.80;;;1.02;;
23236;SDS011;11787;52.018;8.570;2024-03-02T14:27:10;1.98;;;0.98;;
23236;SDS011;11787;52.018;8.570;2024-03-02T14:29:36;2.30;;;0.90;;
23236;SDS011;11787;52.018;8.570;2024-03-02T14:32:03;1.50;;;0.93;;
23236;SDS011;11787;52.018;8.570;2024-03-02T14:34:29;2.72;;;1.10;;
23236;SDS011;11787;52.018;8.570;2024-03-02T14:36:54;1.33;;;0.90;;
23236;SDS011;11787;52.018;8.570;2024-03-02T14:39:20;1.95;;;1.00;;
23236;SDS011;11787;52.018;8.570;2024-03-02T14:41:46;2.85;;;1.00;;
23236;SDS011;11787;52.018;8.570;2024-03-02T14:44:12;1.50;;;0.88;;
23236;SDS011;11787;52.018;8.570;2024-03-02T14:46:37;2.53;;;1.23;;
23236;SDS011;11787;52.018;8.570;2024-03-02T14:49:03;1.00;;;0.73;;
23236;SDS011;11787;52.018;8.570;2024-03-02T14:51:29;1.00;;;0.57;;
23236;SDS011;11787;52.018;8.570;2024-03-02T14:53:55;1.40;;;1.13;;
23236;SDS011;11787;52.018;8.570;2024-03-02T14:56:21;1.50;;;0.90;;
23236;SDS011;11787;52.018;8.570;2024-03-02T14:58:46;0.90;;;0.60;;
23236;SDS011;11787;52.018;8.570;2024-03-02T15:01:12;1.35;;;0.70;;
23236;SDS011;11787;52.018;8.570;2024-03-02T15:03:38;2.55;;;1.00;;
23236;SDS011;11787;52.018;8.570;2024-03-02T15:06:04;2.15;;;1.10;;
23236;SDS011;11787;52.018;8.570;2024-03-02T15:08:30;1.42;;;0.93;;
23236;SDS011;11787;52.018;8.570;2024-03-02T15:10:55;0.85;;;0.70;;
23236;SDS011;11787;52.018;8.570;2024-03-02T15:13:22;1.10;;;0.60;;
23236;SDS011;11787;52.018;8.570;2024-03-02T15:15:48;2.03;;;1.05;;
23236;SDS011;11787;52.018;8.570;2024-03-02T15:18:14;2.20;;;1.40;;
23236;SDS011;11787;52.018;8.570;2024-03-02T15:20:39;2.33;;;1.42;;
23236;SDS011;11787;52.018;8.570;2024-03-02T15:23:05;1.17;;;1.00;;